Converse, SC (29329)

05:25 PM EST del 24 novembre 2014 (GMT -0500)
Hillbrook Forest | Change Station
CLOSE
Current Station
Stazione meteo personale
Location: Spartanburg, SC
Altitudine: 722 ft
Stazioni meteo nelle vicinanze

Alt. 722 ft 34.97 °N, 81.88 °W | Updated 14 minutes ago

Sereno
Sereno
68.2 °F
Sembra 68.2 °F
N
0.0
Vento Variabile Vento da SSO

Oggi
Massima -- | Minima -- °F
--% Possibilità di precip.
Ieri
Massima -- | Minima -- °F
Precip. -- in
7:10 AM 5:17 PM
Luna crescente, 7% visible
Pressione 29.79 in
Visibilità 10.0 miglia
Nuvole Sereno
Punto di rugiada 59 °F
Umidità 72%
Piovosità 0.00 in
Spessore del manto nevoso Non disponibile.
Raggi UV 0 fuori da 12
Polline 1.50 fuori da 12
Qualità dell'aria Non disponibile.
Flu Activity Non disponibile.
METAR KSPA 242215Z AUTO 23003KT 10SM CLR 21/13 A2979 RMK AO2 LTG DSNT E AND S

More Conditions Fewer Conditions

Pressione 29.79 in
Visibilità 10.0 miglia
Nuvole Sereno
Punto di rugiada 59 °F
Umidità 72%
Piovosità 0.00 in
Spessore del manto nevoso Non disponibile.
Raggi UV 0 fuori da 12
Polline 1.50 fuori da 12
Qualità dell'aria Non disponibile.
Flu Activity Non disponibile.
METAR KSPA 242215Z AUTO 23003KT 10SM CLR 21/13 A2979 RMK AO2 LTG DSNT E AND S

More Conditions Fewer Conditions

10-Day Weather Forecast

Almanac

Astronomia

Nov. 24, 2014 Alba Tramonto
Ora attuale
Crepuscolo civile
Crepuscolo nautico
Crepuscolo astronomico
Luna
Estensione della luce visibile
Lunghezza del giorno
Tomorrow will be .
, % of the Moon is Illuminated

Gli estremi di oggi

State Highs State Lows

Community

WunderPhotos

Upload Photos

1,773,427 foto caricate!

WunderBlogs® & News

Nearby

Qualità dell'aria

  Qualità dell'aria Indice AQ Inquinante
Not available.

Profondità neve

Stazione Profondità Altitudine

Attività sismica

Città  Distanza Mag. Data & Ora
Minimo Magnitudo Mostrato è 2.5.

Temperature delle acque costiere

Località Temperatura

Stazioni meteo nelle vicinanze